createdAt,value
2023-04-07T00:00:28.489Z,93406.31
2023-04-07T00:01:25.157Z,93407.38
2023-04-07T00:02:22.293Z,93404.25
2023-04-07T00:03:19.217Z,93409.19
2023-04-07T00:04:16.436Z,93406.84
2023-04-07T00:05:13.200Z,93337.28
2023-04-07T00:06:10.279Z,93382.94
2023-04-07T00:07:07.202Z,93405.09
2023-04-07T00:08:03.871Z,93404.25
2023-04-07T00:09:01.012Z,93404.50
2023-04-07T00:09:57.642Z,93408.97
2023-04-07T00:10:54.254Z,93408.03
2023-04-07T00:11:51.841Z,93406.25
2023-04-07T00:12:48.434Z,93411.72
2023-04-07T00:13:45.004Z,93411.44
2023-04-07T00:14:41.684Z,93404.84
2023-04-07T00:15:38.414Z,93406.47
2023-04-07T00:16:35.140Z,93410.38
2023-04-07T00:17:31.860Z,93387.28
2023-04-07T00:18:28.535Z,93405.47
2023-04-07T00:19:25.273Z,93394.34
2023-04-07T00:20:22.089Z,93404.16
2023-04-07T00:21:18.681Z,93399.13
2023-04-07T00:22:15.526Z,93402.75
2023-04-07T00:23:12.165Z,93373.50
2023-04-07T00:24:08.950Z,93398.41
2023-04-07T00:25:06.099Z,93400.84
2023-04-07T00:26:02.727Z,93398.19
2023-04-07T00:26:59.291Z,93397.56
2023-04-07T00:27:55.887Z,93387.56
2023-04-07T00:28:52.520Z,93347.38
2023-04-07T00:29:49.182Z,93402.03
2023-04-07T00:30:45.994Z,93395.41
2023-04-07T00:31:42.610Z,93402.28
2023-04-07T00:32:39.303Z,93403.13
2023-04-07T00:33:35.958Z,93407.94
2023-04-07T00:34:32.522Z,93407.38
2023-04-07T00:35:29.190Z,93396.97
2023-04-07T00:36:27.161Z,93400.41
2023-04-07T00:37:25.609Z,93399.63
2023-04-07T00:38:22.306Z,93393.56
2023-04-07T00:39:19.997Z,93397.69
2023-04-07T00:40:17.471Z,93390.56
2023-04-07T00:41:14.170Z,93395.06
2023-04-07T00:42:11.020Z,93397.53
2023-04-07T00:43:07.564Z,93399.34
2023-04-07T00:44:04.311Z,93395.16
2023-04-07T00:45:01.233Z,93399.19
2023-04-07T00:45:57.913Z,93407.47
2023-04-07T00:46:54.634Z,93401.19
2023-04-07T00:47:51.404Z,93394.19
2023-04-07T00:48:48.166Z,93396.56
2023-04-07T00:49:44.892Z,93378.84
2023-04-07T00:50:41.750Z,93404.81
2023-04-07T00:51:38.404Z,93400.47
2023-04-07T00:52:35.939Z,93399.91
2023-04-07T00:53:32.608Z,93405.59
2023-04-07T00:54:30.834Z,93396.25
2023-04-07T00:55:27.489Z,93396.31
2023-04-07T00:56:24.095Z,93358.34
2023-04-07T00:57:20.809Z,93395.69
2023-04-07T00:58:17.458Z,93391.94
2023-04-07T00:59:14.422Z,93369.03
2023-04-07T01:00:11.378Z,93394.34
2023-04-07T01:01:13.642Z,93395.25
2023-04-07T01:02:22.786Z,93396.19
2023-04-07T01:03:27.314Z,93357.22
2023-04-07T01:04:37.760Z,93348.22
2023-04-07T01:06:02.628Z,93356.06
2023-04-07T01:07:21.228Z,93395.34
2023-04-07T01:08:24.352Z,93376.91
2023-04-07T01:09:25.577Z,93395.53
2023-04-07T01:10:53.008Z,93386.00
2023-04-07T01:11:58.638Z,93388.97
2023-04-07T01:13:22.412Z,93383.31
2023-04-07T01:14:20.592Z,93389.22
2023-04-07T01:15:21.637Z,93387.78
2023-04-07T01:16:26.675Z,93390.38
2023-04-07T01:17:27.093Z,93386.25
2023-04-07T01:18:33.764Z,93365.41
2023-04-07T01:19:56.334Z,93384.88
2023-04-07T01:20:56.599Z,93398.47
2023-04-07T01:21:55.957Z,93384.16
2023-04-07T01:22:57.986Z,93380.22
2023-04-07T01:24:00.628Z,93380.75
2023-04-07T01:25:25.237Z,93391.69
2023-04-07T01:26:33.648Z,93389.13
2023-04-07T01:28:00.877Z,93393.78
2023-04-07T01:29:16.054Z,93390.75
2023-04-07T01:30:16.204Z,93383.06
2023-04-07T01:31:15.779Z,93381.09
2023-04-07T01:32:12.738Z,93379.75
2023-04-07T01:33:11.292Z,93377.69
2023-04-07T01:34:12.731Z,93382.00
2023-04-07T01:35:13.765Z,93383.91
2023-04-07T01:36:12.142Z,93382.13
2023-04-07T01:37:09.864Z,93377.31
2023-04-07T01:38:07.303Z,93371.41
2023-04-07T01:39:04.412Z,93338.66
2023-04-07T01:40:01.234Z,93380.44
2023-04-07T01:40:59.555Z,93379.72
2023-04-07T01:41:58.082Z,93378.78
2023-04-07T01:42:57.452Z,93376.84
2023-04-07T01:43:55.709Z,93384.34
2023-04-07T01:44:54.012Z,93386.25
2023-04-07T01:45:51.533Z,93377.22
2023-04-07T01:46:51.337Z,93372.66
2023-04-07T01:47:49.568Z,93380.63
2023-04-07T01:48:48.172Z,93380.31
2023-04-07T01:49:46.908Z,93314.13
2023-04-07T01:50:44.190Z,93379.66
2023-04-07T01:51:42.444Z,93333.69
2023-04-07T01:52:40.220Z,93376.44
2023-04-07T01:53:38.622Z,93372.97
2023-04-07T01:54:35.817Z,93366.75
2023-04-07T01:55:32.914Z,93361.38
2023-04-07T01:56:29.686Z,93361.66
2023-04-07T01:57:26.405Z,93365.72
2023-04-07T01:58:23.004Z,93324.41
2023-04-07T01:59:19.826Z,93338.59
2023-04-07T02:00:16.637Z,93361.47
2023-04-07T02:01:14.429Z,93359.94
2023-04-07T02:02:11.353Z,93359.59
2023-04-07T02:03:23.497Z,93349.16
2023-04-07T02:04:32.511Z,93357.81
2023-04-07T02:05:30.569Z,93310.47
2023-04-07T02:06:36.585Z,93357.81
2023-04-07T02:07:58.169Z,93358.28
2023-04-07T02:08:59.381Z,93359.31
2023-04-07T02:10:01.455Z,93356.16
2023-04-07T02:11:00.797Z,93360.53
2023-04-07T02:12:00.084Z,93360.56
2023-04-07T02:12:58.741Z,93367.00
2023-04-07T02:13:56.986Z,93370.13
2023-04-07T02:14:55.279Z,93305.44
2023-04-07T02:15:53.590Z,93362.72
2023-04-07T02:16:51.800Z,93357.81
2023-04-07T02:17:51.954Z,93367.88
2023-04-07T02:18:49.498Z,93365.53
2023-04-07T02:19:47.055Z,93382.88
2023-04-07T02:20:45.240Z,93367.88
2023-04-07T02:21:42.385Z,93374.41
2023-04-07T02:22:39.820Z,93370.06
2023-04-07T02:23:36.448Z,93364.13
2023-04-07T02:24:33.125Z,93369.81
2023-04-07T02:25:31.888Z,93319.66
2023-04-07T02:26:29.319Z,93353.31
2023-04-07T02:27:27.082Z,93370.44
2023-04-07T02:28:24.201Z,93321.13
2023-04-07T02:29:21.057Z,93366.34
2023-04-07T02:30:17.677Z,93366.97
2023-04-07T02:31:14.382Z,93363.09
2023-04-07T02:32:11.176Z,93365.91
2023-04-07T02:33:07.843Z,93356.56
2023-04-07T02:34:04.581Z,93368.47
2023-04-07T02:35:01.392Z,93359.63
2023-04-07T02:35:57.963Z,93356.50
2023-04-07T02:36:54.598Z,93331.31
2023-04-07T02:37:51.511Z,93358.91
2023-04-07T02:38:48.146Z,93357.41
2023-04-07T02:39:44.718Z,93355.09
2023-04-07T02:40:41.638Z,93360.97
2023-04-07T02:41:38.322Z,93360.31
2023-04-07T02:42:36.699Z,93358.06
2023-04-07T02:43:33.319Z,93365.22
2023-04-07T02:44:30.117Z,93350.06
2023-04-07T02:45:26.736Z,93355.53
2023-04-07T02:46:23.507Z,93351.56
2023-04-07T02:47:20.610Z,93357.22
2023-04-07T02:48:17.359Z,93355.28
2023-04-07T02:49:13.936Z,93365.41
2023-04-07T02:50:10.891Z,93366.34
2023-04-07T02:51:07.539Z,93295.66
2023-04-07T02:52:04.330Z,93367.25
2023-04-07T02:53:00.934Z,93360.25
2023-04-07T02:53:57.708Z,93374.13
2023-04-07T02:54:54.698Z,93374.25
2023-04-07T02:55:51.479Z,93362.22
2023-04-07T02:56:48.054Z,93337.19
2023-04-07T02:57:44.658Z,93374.91
2023-04-07T02:58:41.316Z,93372.69
2023-04-07T02:59:37.907Z,93323.94
2023-04-07T03:00:34.793Z,93370.50
2023-04-07T03:01:31.606Z,93371.97
2023-04-07T03:02:28.478Z,93373.81
2023-04-07T03:03:25.663Z,93374.81
2023-04-07T03:04:22.869Z,93373.16
2023-04-07T03:05:19.673Z,93378.19
2023-04-07T03:06:16.304Z,93323.78
2023-04-07T03:07:12.916Z,93369.13
2023-04-07T03:08:10.499Z,93369.75
2023-04-07T03:09:09.021Z,93354.94
2023-04-07T03:10:06.269Z,93353.75
2023-04-07T03:11:02.944Z,93374.34
2023-04-07T03:11:59.744Z,93382.22
2023-04-07T03:12:57.199Z,93334.00
2023-04-07T03:13:53.993Z,93369.31
2023-04-07T03:14:50.664Z,93372.31
2023-04-07T03:15:47.422Z,93368.34
2023-04-07T03:16:44.125Z,93370.53
2023-04-07T03:17:40.921Z,93373.16
2023-04-07T03:18:37.562Z,93327.94
2023-04-07T03:19:34.178Z,93374.34
2023-04-07T03:20:31.069Z,93364.63
2023-04-07T03:21:29.071Z,93376.53
2023-04-07T03:22:25.672Z,93375.00
2023-04-07T03:23:24.046Z,93361.75
2023-04-07T03:24:20.767Z,93368.13
2023-04-07T03:25:17.674Z,93364.88
2023-04-07T03:26:14.306Z,93373.19
2023-04-07T03:27:11.142Z,93359.72
2023-04-07T03:28:07.724Z,93360.72
2023-04-07T03:29:04.381Z,93367.63
2023-04-07T03:30:00.976Z,93370.91
2023-04-07T03:30:57.587Z,93343.59
2023-04-07T03:31:54.240Z,93365.91
2023-04-07T03:32:51.072Z,93364.84
2023-04-07T03:33:47.693Z,93368.19
2023-04-07T03:34:44.343Z,93368.66
2023-04-07T03:35:41.222Z,93370.41
2023-04-07T03:36:37.891Z,93365.41
2023-04-07T03:37:34.456Z,93361.03
2023-04-07T03:38:31.286Z,93369.91
2023-04-07T03:39:27.928Z,93373.50
2023-04-07T03:40:26.825Z,93367.16
2023-04-07T03:41:23.618Z,93370.72
2023-04-07T03:42:20.226Z,93374.25
2023-04-07T03:43:16.795Z,93375.31
2023-04-07T03:44:13.431Z,93375.47
2023-04-07T03:45:10.512Z,93372.50
2023-04-07T03:46:07.870Z,93375.06
2023-04-07T03:47:04.576Z,93373.00
2023-04-07T03:48:01.571Z,93386.94
2023-04-07T03:48:58.227Z,93383.03
2023-04-07T03:49:54.866Z,93364.94
2023-04-07T03:50:51.465Z,93374.22
2023-04-07T03:51:48.031Z,93384.31
2023-04-07T03:52:44.655Z,93377.34
2023-04-07T03:53:41.426Z,93376.59
2023-04-07T03:54:37.981Z,93372.84
2023-04-07T03:55:35.309Z,93383.81
2023-04-07T03:56:32.096Z,93383.13
2023-04-07T03:57:28.703Z,93389.00
2023-04-07T03:58:25.384Z,93381.28
2023-04-07T03:59:22.049Z,93380.78
2023-04-07T04:00:18.923Z,93383.31
2023-04-07T04:01:16.111Z,93390.03
2023-04-07T04:02:12.901Z,93387.84
2023-04-07T04:03:10.239Z,93390.03
2023-04-07T04:04:07.222Z,93386.41
2023-04-07T04:05:04.221Z,93384.09
2023-04-07T04:06:00.821Z,93381.13
2023-04-07T04:06:57.430Z,93387.88
2023-04-07T04:07:54.101Z,93382.44
2023-04-07T04:08:50.658Z,93378.44
2023-04-07T04:09:47.253Z,93383.59
2023-04-07T04:10:43.857Z,93336.19
2023-04-07T04:11:40.569Z,93395.91
2023-04-07T04:12:37.280Z,93383.16
2023-04-07T04:13:33.845Z,93392.22
2023-04-07T04:14:30.469Z,93390.72
2023-04-07T04:15:27.255Z,93388.59
2023-04-07T04:16:23.931Z,93386.47
2023-04-07T04:17:20.579Z,93316.50
2023-04-07T04:18:17.419Z,93376.75
2023-04-07T04:19:14.072Z,93401.06
2023-04-07T04:20:10.988Z,93349.97
2023-04-07T04:21:08.453Z,93367.09
2023-04-07T04:22:05.168Z,93395.31
2023-04-07T04:23:01.877Z,93397.38
2023-04-07T04:23:58.455Z,93354.50
2023-04-07T04:24:55.119Z,93392.81
2023-04-07T04:25:51.814Z,93397.19
2023-04-07T04:26:48.533Z,93400.44
2023-04-07T04:27:45.448Z,93400.06
2023-04-07T04:28:42.023Z,93404.94
2023-04-07T04:29:38.633Z,93407.56
2023-04-07T04:30:35.447Z,93289.84
2023-04-07T04:31:32.163Z,93397.84
2023-04-07T04:32:28.824Z,93408.81
2023-04-07T04:33:25.717Z,93404.34
2023-04-07T04:34:22.318Z,93410.34
2023-04-07T04:35:18.933Z,93412.13
2023-04-07T04:36:15.807Z,93391.03
2023-04-07T04:37:12.945Z,93411.34
2023-04-07T04:38:10.486Z,93366.59
2023-04-07T04:39:07.184Z,93410.00
2023-04-07T04:40:04.197Z,93409.41
2023-04-07T04:41:00.850Z,93403.38
2023-04-07T04:41:57.551Z,93387.72
2023-04-07T04:42:54.147Z,93412.16
2023-04-07T04:43:50.878Z,93400.97
2023-04-07T04:44:47.464Z,93414.03
2023-04-07T04:45:44.187Z,93421.97
2023-04-07T04:46:41.283Z,93418.66
2023-04-07T04:47:39.231Z,93411.69
2023-04-07T04:48:36.016Z,93411.09
2023-04-07T04:49:32.621Z,93405.94
2023-04-07T04:50:29.283Z,93416.94
2023-04-07T04:51:26.356Z,93413.63
2023-04-07T04:52:22.995Z,93416.66
2023-04-07T04:53:19.650Z,93417.63
2023-04-07T04:54:16.714Z,93419.47
2023-04-07T04:55:14.616Z,93415.00
2023-04-07T04:56:11.550Z,93417.91
2023-04-07T04:57:08.175Z,93419.19
2023-04-07T04:58:04.820Z,93412.94
2023-04-07T04:59:03.281Z,93429.00
2023-04-07T04:59:59.900Z,93418.03
2023-04-07T05:01:00.468Z,93377.47
2023-04-07T05:01:57.245Z,93431.91
2023-04-07T05:02:55.109Z,93427.34
2023-04-07T05:03:52.384Z,93415.09
2023-04-07T05:04:49.254Z,93430.25
2023-04-07T05:05:48.505Z,93424.72
2023-04-07T05:06:45.190Z,93424.13
2023-04-07T05:07:42.259Z,93426.16
2023-04-07T05:08:38.856Z,93376.50
2023-04-07T05:09:35.414Z,93430.66
2023-04-07T05:10:32.017Z,93429.00
2023-04-07T05:11:28.632Z,93425.31
2023-04-07T05:12:25.313Z,93427.81
2023-04-07T05:13:22.060Z,93398.84
2023-04-07T05:14:18.678Z,93434.34
2023-04-07T05:15:15.636Z,93437.56
2023-04-07T05:16:12.261Z,93429.69
2023-04-07T05:17:09.125Z,93426.75
2023-04-07T05:18:05.893Z,93437.66
2023-04-07T05:19:02.576Z,93441.16
2023-04-07T05:19:59.209Z,93435.44
2023-04-07T05:20:55.798Z,93439.38
2023-04-07T05:21:52.414Z,93434.53
2023-04-07T05:22:48.972Z,93437.44
2023-04-07T05:23:45.714Z,93443.88
2023-04-07T05:24:42.426Z,93436.78
2023-04-07T05:25:39.080Z,93421.00
2023-04-07T05:26:35.663Z,93442.69
2023-04-07T05:27:32.329Z,93436.94
2023-04-07T05:28:29.138Z,93438.97
2023-04-07T05:29:25.993Z,93446.16
2023-04-07T05:30:22.644Z,93393.69
2023-04-07T05:31:19.247Z,93444.13
2023-04-07T05:32:15.880Z,93443.94
2023-04-07T05:33:13.337Z,93444.34
2023-04-07T05:34:10.436Z,93446.91
2023-04-07T05:35:07.450Z,93437.88
2023-04-07T05:36:04.361Z,93440.28
2023-04-07T05:37:01.057Z,93429.56
2023-04-07T05:37:57.642Z,93442.66
2023-04-07T05:38:54.244Z,93385.91
2023-04-07T05:39:51.249Z,93453.00
2023-04-07T05:40:48.351Z,93445.38
2023-04-07T05:41:45.417Z,93406.19
2023-04-07T05:42:42.280Z,93453.44
2023-04-07T05:43:39.009Z,93450.53
2023-04-07T05:44:35.828Z,93452.03
2023-04-07T05:45:32.454Z,93402.66
2023-04-07T05:46:29.843Z,93443.25
2023-04-07T05:47:26.764Z,93449.50
2023-04-07T05:48:23.686Z,93445.97
2023-04-07T05:49:20.872Z,93446.03
2023-04-07T05:50:18.381Z,93443.63
2023-04-07T05:51:15.736Z,93445.69
2023-04-07T05:52:13.208Z,93423.91
2023-04-07T05:53:09.808Z,93450.09
2023-04-07T05:54:07.041Z,93461.09
2023-04-07T05:55:03.961Z,93444.44
2023-04-07T05:56:00.902Z,93445.63
2023-04-07T05:56:57.629Z,93450.44
2023-04-07T05:57:54.810Z,93449.84
2023-04-07T05:58:51.396Z,93441.00
2023-04-07T05:59:48.039Z,93448.53
2023-04-07T06:00:44.628Z,93449.19
2023-04-07T06:01:42.188Z,93444.38
2023-04-07T06:02:40.287Z,93444.91
2023-04-07T06:03:37.156Z,93452.03
2023-04-07T06:04:35.432Z,93451.59
2023-04-07T06:05:32.084Z,93448.66
2023-04-07T06:06:29.554Z,93434.41
2023-04-07T06:07:26.179Z,93443.38
2023-04-07T06:08:22.776Z,93458.88
2023-04-07T06:09:19.330Z,93434.44
2023-04-07T06:10:16.126Z,93447.22
2023-04-07T06:11:12.945Z,93404.41
2023-04-07T06:12:10.767Z,93420.22
2023-04-07T06:13:07.905Z,93443.38
2023-04-07T06:14:04.448Z,93440.97
2023-04-07T06:15:01.368Z,93444.94
2023-04-07T06:15:58.156Z,93453.47
2023-04-07T06:16:54.998Z,93452.09
2023-04-07T06:17:51.877Z,93395.06
2023-04-07T06:18:48.645Z,93457.56
2023-04-07T06:19:45.841Z,93442.81
2023-04-07T06:20:42.443Z,93458.53
2023-04-07T06:21:39.977Z,93429.34
2023-04-07T06:22:36.640Z,93395.34
2023-04-07T06:23:33.254Z,93459.69
2023-04-07T06:24:29.992Z,93460.75
2023-04-07T06:25:26.660Z,93451.53
2023-04-07T06:26:23.807Z,93459.00
2023-04-07T06:27:21.751Z,93459.72
2023-04-07T06:28:18.755Z,93416.34
2023-04-07T06:29:15.668Z,93444.13
2023-04-07T06:30:12.567Z,93459.66
2023-04-07T06:31:09.764Z,93457.19
2023-04-07T06:32:06.783Z,93444.47
2023-04-07T06:33:03.462Z,93453.75
2023-04-07T06:34:00.072Z,93440.22
2023-04-07T06:34:57.067Z,93467.94
2023-04-07T06:35:53.817Z,93464.25
2023-04-07T06:36:51.052Z,93465.50
2023-04-07T06:37:47.786Z,93445.59
2023-04-07T06:38:44.511Z,93458.81
2023-04-07T06:39:41.179Z,93456.19
2023-04-07T06:40:37.963Z,93455.44
2023-04-07T06:41:34.718Z,93410.75
2023-04-07T06:42:31.318Z,93455.78
2023-04-07T06:43:27.948Z,93436.25
2023-04-07T06:44:24.558Z,93460.13
2023-04-07T06:45:21.392Z,93452.84
2023-04-07T06:46:19.390Z,93462.94
2023-04-07T06:47:16.255Z,93450.34
2023-04-07T06:48:12.926Z,93460.91
2023-04-07T06:49:09.554Z,93462.47
2023-04-07T06:50:06.826Z,93459.19
2023-04-07T06:51:03.588Z,93456.16
2023-04-07T06:52:00.331Z,93456.03
2023-04-07T06:52:56.952Z,93457.63
2023-04-07T06:53:53.614Z,93438.34
2023-04-07T06:54:50.325Z,93462.22
2023-04-07T06:55:46.985Z,93464.09
2023-04-07T06:56:43.951Z,93462.63
2023-04-07T06:57:40.555Z,93464.00
2023-04-07T06:58:37.755Z,93468.69
2023-04-07T06:59:34.311Z,93462.63
2023-04-07T07:00:31.286Z,93455.94
2023-04-07T07:01:28.461Z,93460.28
2023-04-07T07:02:25.421Z,93457.91
2023-04-07T07:03:22.322Z,93469.47
2023-04-07T07:04:19.143Z,93464.00
2023-04-07T07:05:16.201Z,93358.91
2023-04-07T07:06:12.856Z,93465.84
2023-04-07T07:07:09.462Z,93456.00
2023-04-07T07:08:06.085Z,93420.53
2023-04-07T07:09:03.227Z,93462.69
2023-04-07T07:09:59.921Z,93467.22
2023-04-07T07:10:56.919Z,93462.78
2023-04-07T07:11:53.690Z,93471.47
2023-04-07T07:12:51.171Z,93470.06
2023-04-07T07:13:48.146Z,93468.19
2023-04-07T07:14:44.839Z,93470.44
2023-04-07T07:15:41.542Z,93472.16
2023-04-07T07:16:38.082Z,93470.91
2023-04-07T07:17:35.579Z,93475.16
2023-04-07T07:18:32.208Z,93466.47
2023-04-07T07:19:28.843Z,93466.19
2023-04-07T07:20:26.039Z,93474.97
2023-04-07T07:21:22.746Z,93473.66
2023-04-07T07:22:19.317Z,93456.56
2023-04-07T07:23:16.092Z,93481.72
2023-04-07T07:24:12.714Z,93473.47
2023-04-07T07:25:09.694Z,93477.78
2023-04-07T07:26:06.452Z,93460.28
2023-04-07T07:27:03.573Z,93470.59
2023-04-07T07:28:00.238Z,93470.97
2023-04-07T07:28:56.828Z,93474.38
2023-04-07T07:29:53.401Z,93480.13
2023-04-07T07:30:50.084Z,93477.38
2023-04-07T07:31:46.736Z,93479.75
2023-04-07T07:32:43.481Z,93482.19
2023-04-07T07:33:41.459Z,93483.63
2023-04-07T07:34:38.129Z,93438.22
2023-04-07T07:35:34.818Z,93479.72
2023-04-07T07:36:32.353Z,93483.25
2023-04-07T07:37:28.974Z,93487.94
2023-04-07T07:38:27.645Z,93381.19
2023-04-07T07:39:26.635Z,93479.19
2023-04-07T07:40:23.374Z,93487.50
2023-04-07T07:41:19.983Z,93493.66
2023-04-07T07:42:16.649Z,93457.91
2023-04-07T07:43:13.357Z,93491.00
2023-04-07T07:44:09.973Z,93491.44
2023-04-07T07:45:07.128Z,93490.72
2023-04-07T07:46:04.263Z,93504.44
2023-04-07T07:47:00.924Z,93495.31
2023-04-07T07:47:57.580Z,93498.94
2023-04-07T07:48:54.244Z,93489.16
2023-04-07T07:49:51.137Z,93465.97
2023-04-07T07:50:49.180Z,93501.72
2023-04-07T07:51:47.125Z,93498.59
2023-04-07T07:52:43.764Z,93494.34
2023-04-07T07:53:40.398Z,93502.38
2023-04-07T07:54:37.047Z,93489.22
2023-04-07T07:55:33.611Z,93487.53
2023-04-07T07:56:30.254Z,93494.56
2023-04-07T07:57:26.979Z,93489.88
2023-04-07T07:58:24.028Z,93481.69
2023-04-07T07:59:21.637Z,93493.13
2023-04-07T08:00:18.431Z,93496.63
2023-04-07T08:01:15.046Z,93495.47
2023-04-07T08:02:11.983Z,93493.59
2023-04-07T08:03:08.768Z,93495.66
2023-04-07T08:04:05.654Z,93497.84
2023-04-07T08:05:02.360Z,93501.19
2023-04-07T08:05:59.174Z,93492.31
2023-04-07T08:06:56.166Z,93458.28
2023-04-07T08:07:54.673Z,93493.41
2023-04-07T08:08:51.500Z,93485.81
2023-04-07T08:09:48.422Z,93489.38
2023-04-07T08:10:45.027Z,93491.91
2023-04-07T08:11:41.644Z,93487.75
2023-04-07T08:12:38.246Z,93504.41
2023-04-07T08:13:34.968Z,93499.25
2023-04-07T08:14:31.799Z,93492.28
2023-04-07T08:15:28.364Z,93468.28
2023-04-07T08:16:26.922Z,93498.53
2023-04-07T08:17:23.917Z,93507.84
2023-04-07T08:18:20.742Z,93499.25
2023-04-07T08:19:17.576Z,93486.59
2023-04-07T08:20:14.229Z,93503.06
2023-04-07T08:21:11.026Z,93513.31
2023-04-07T08:22:07.672Z,93513.72
2023-04-07T08:23:05.098Z,93432.16
2023-04-07T08:24:01.790Z,93507.69
2023-04-07T08:24:58.394Z,93508.25
2023-04-07T08:25:54.978Z,93462.84
2023-04-07T08:26:51.574Z,93511.28
2023-04-07T08:27:48.170Z,93512.50
2023-04-07T08:28:44.771Z,93515.94
2023-04-07T08:29:41.465Z,93512.13
2023-04-07T08:30:38.206Z,93501.94
2023-04-07T08:31:34.859Z,93507.16
2023-04-07T08:32:39.028Z,93514.56
2023-04-07T08:33:35.660Z,93515.00
2023-04-07T08:34:32.413Z,93517.34
2023-04-07T08:35:28.989Z,93508.25
2023-04-07T08:36:27.402Z,93474.16
2023-04-07T08:37:24.031Z,93495.53
2023-04-07T08:38:21.068Z,93484.94
2023-04-07T08:39:17.963Z,93509.88
2023-04-07T08:40:14.683Z,93506.53
2023-04-07T08:41:13.841Z,93468.34
2023-04-07T08:42:12.892Z,93502.84
2023-04-07T08:43:10.660Z,93495.22
2023-04-07T08:44:09.385Z,93487.59
2023-04-07T08:45:07.549Z,93491.91
2023-04-07T08:46:04.860Z,93490.41
2023-04-07T08:47:03.455Z,93500.72
2023-04-07T08:48:11.144Z,93500.59
2023-04-07T08:49:10.325Z,93502.78
2023-04-07T08:50:09.210Z,93500.34
2023-04-07T08:51:08.490Z,93501.94
2023-04-07T08:52:09.610Z,93475.63
2023-04-07T08:53:08.938Z,93502.66
2023-04-07T08:54:10.198Z,93507.41
2023-04-07T08:55:08.567Z,93494.84
2023-04-07T08:56:06.498Z,93507.31
2023-04-07T08:57:03.959Z,93504.25
2023-04-07T08:58:02.138Z,93509.91
2023-04-07T08:58:59.130Z,93511.75
2023-04-07T08:59:56.238Z,93508.53
2023-04-07T09:00:53.312Z,93510.72
2023-04-07T09:01:50.376Z,93512.69
2023-04-07T09:02:49.424Z,93470.94
2023-04-07T09:03:48.909Z,93505.63
2023-04-07T09:04:46.195Z,93503.84
2023-04-07T09:05:45.438Z,93499.31
2023-04-07T09:06:42.030Z,93510.53
2023-04-07T09:07:40.426Z,93513.53
2023-04-07T09:08:37.233Z,93469.06
2023-04-07T09:09:33.987Z,93506.28
2023-04-07T09:10:31.312Z,93508.63
2023-04-07T09:11:29.217Z,93498.47
2023-04-07T09:12:27.261Z,93509.88
2023-04-07T09:13:26.809Z,93470.31
2023-04-07T09:14:23.639Z,93510.03
2023-04-07T09:15:21.430Z,93519.66
2023-04-07T09:16:18.809Z,93526.50
2023-04-07T09:17:15.577Z,93512.50
2023-04-07T09:18:12.443Z,93447.06
2023-04-07T09:19:09.084Z,93520.09
2023-04-07T09:20:06.094Z,93495.13
2023-04-07T09:21:05.550Z,93514.50
2023-04-07T09:22:02.182Z,93516.78
2023-04-07T09:23:00.433Z,93520.72
2023-04-07T09:23:57.015Z,93515.81
2023-04-07T09:24:53.574Z,93503.72
2023-04-07T09:25:50.230Z,93433.88
2023-04-07T09:26:46.793Z,93519.31
2023-04-07T09:27:57.301Z,93520.81
2023-04-07T09:29:02.914Z,93484.09
2023-04-07T09:30:14.813Z,93514.00
2023-04-07T09:31:11.615Z,93488.44
2023-04-07T09:32:08.946Z,93502.47
2023-04-07T09:33:05.642Z,93503.66
2023-04-07T09:34:05.492Z,93533.19
2023-04-07T09:35:02.070Z,93535.78
2023-04-07T09:35:58.707Z,93534.00
2023-04-07T09:36:56.967Z,93532.56
2023-04-07T09:38:07.916Z,93528.66
2023-04-07T09:39:08.768Z,93538.06
2023-04-07T09:40:05.970Z,93535.00
2023-04-07T09:41:11.046Z,93531.25
2023-04-07T09:42:07.984Z,93532.94
2023-04-07T09:43:06.441Z,93535.84
2023-04-07T09:44:03.202Z,93531.97
2023-04-07T09:45:00.607Z,93522.69
2023-04-07T09:46:20.122Z,93528.66
2023-04-07T09:47:18.062Z,93529.91
2023-04-07T09:48:22.037Z,93528.22
2023-04-07T09:49:20.405Z,93531.00
2023-04-07T09:50:31.646Z,93535.19
2023-04-07T09:51:28.532Z,93534.16
2023-04-07T09:52:54.658Z,93534.44
2023-04-07T09:53:52.554Z,93515.88
2023-04-07T09:54:49.458Z,93534.81
2023-04-07T09:55:46.477Z,93531.19
2023-04-07T09:56:44.731Z,93420.63
2023-04-07T09:57:42.281Z,93516.44
2023-04-07T09:58:40.921Z,93532.81
2023-04-07T09:59:42.603Z,93530.84
2023-04-07T10:00:39.653Z,93529.00
2023-04-07T10:01:36.407Z,93529.16
2023-04-07T10:02:33.267Z,93540.91
2023-04-07T10:03:30.114Z,93522.88
2023-04-07T10:04:27.771Z,93532.50
2023-04-07T10:05:25.847Z,93534.13
2023-04-07T10:06:25.503Z,93511.13
2023-04-07T10:07:22.656Z,93527.97
2023-04-07T10:08:20.047Z,93535.56
2023-04-07T10:09:17.979Z,93535.69
2023-04-07T10:10:14.631Z,93538.03
2023-04-07T10:11:11.366Z,93534.81
2023-04-07T10:12:07.984Z,93529.28
2023-04-07T10:13:05.624Z,93529.06
2023-04-07T10:14:02.583Z,93472.00
2023-04-07T10:15:01.982Z,93527.09
2023-04-07T10:15:59.986Z,93527.41
2023-04-07T10:16:57.527Z,93518.56
2023-04-07T10:17:56.901Z,93491.84
2023-04-07T10:18:54.748Z,93527.19
2023-04-07T10:19:51.612Z,93533.69
2023-04-07T10:20:49.907Z,93523.09
2023-04-07T10:21:48.361Z,93495.69
2023-04-07T10:22:47.959Z,93524.38
2023-04-07T10:23:50.044Z,93523.88
2023-04-07T10:24:54.692Z,93532.03
2023-04-07T10:25:55.000Z,93535.97
2023-04-07T10:26:55.102Z,93529.91
2023-04-07T10:27:54.700Z,93528.84
2023-04-07T10:29:04.334Z,93498.78
2023-04-07T10:30:04.382Z,93533.28
2023-04-07T10:31:01.819Z,93527.41
2023-04-07T10:32:01.765Z,93536.38
2023-04-07T10:32:59.362Z,93541.69
2023-04-07T10:33:57.096Z,93525.63
2023-04-07T10:34:54.570Z,93528.31
2023-04-07T10:36:07.982Z,93524.09
2023-04-07T10:37:14.740Z,93538.47
2023-04-07T10:38:16.856Z,93529.06
2023-04-07T10:39:13.456Z,93531.72
2023-04-07T10:40:19.329Z,93435.63
2023-04-07T10:41:38.345Z,93531.03
2023-04-07T10:42:37.672Z,93538.47
2023-04-07T10:43:44.258Z,93527.97
2023-04-07T10:44:40.797Z,93537.69
2023-04-07T10:45:57.990Z,93535.16
2023-04-07T10:47:05.924Z,93521.84
2023-04-07T10:48:02.495Z,93535.81
2023-04-07T10:49:12.070Z,93532.13
2023-04-07T10:50:22.901Z,93545.03
2023-04-07T10:51:19.700Z,93537.25
2023-04-07T10:52:24.004Z,93529.84
2023-04-07T10:53:20.611Z,93535.75
2023-04-07T10:54:22.310Z,93530.69
2023-04-07T10:55:40.780Z,93531.59
2023-04-07T10:57:05.273Z,93540.19
2023-04-07T10:58:24.370Z,93534.28
2023-04-07T10:59:27.546Z,93538.38
2023-04-07T11:00:24.617Z,93537.25
2023-04-07T11:01:21.282Z,93535.59
2023-04-07T11:02:39.633Z,93533.63
2023-04-07T11:03:57.409Z,93527.09
2023-04-07T11:04:54.219Z,93529.19
2023-04-07T11:05:51.077Z,93491.34
2023-04-07T11:06:48.402Z,93537.50
2023-04-07T11:07:50.990Z,93537.81
2023-04-07T11:08:49.490Z,93533.81
2023-04-07T11:09:46.779Z,93518.69
2023-04-07T11:10:47.976Z,93531.63
2023-04-07T11:11:47.668Z,93538.50
2023-04-07T11:12:44.277Z,93526.94
2023-04-07T11:13:58.969Z,93536.75
2023-04-07T11:14:56.740Z,93544.09
2023-04-07T11:15:53.658Z,93533.94
2023-04-07T11:16:50.324Z,93533.91
2023-04-07T11:17:46.950Z,93538.91
2023-04-07T11:18:44.798Z,93540.44
2023-04-07T11:19:52.195Z,93509.16
2023-04-07T11:20:52.797Z,93540.91
2023-04-07T11:21:49.709Z,93555.06
2023-04-07T11:23:00.253Z,93537.25
2023-04-07T11:23:56.815Z,93535.91
2023-04-07T11:24:53.732Z,93534.81
2023-04-07T11:25:52.587Z,93541.56